Terminal Aerodrome Forecast
Issued by NWS

Home | Current Version | Previous Version | Text Only | Print | Product List | Glossary On
Versions: 1 2 3 4 5 6 7 8 9 10 11 12 13 14 15 16 17 18 19
915
FTUS43 KAPX 231300 AAA
TAFAPN
TAF AMD
KAPN 231300Z 2313/2412 15010KT 5SM BR VCSH OVC005 WS020/18040KT
     FM231400 15009KT 4SM -RA BR OVC010
     FM231700 21008KT P6SM OVC015
     FM232000 25008KT P6SM BKN025
     FM240200 28008KT P6SM BKN025
     FM240700 31006KT P6SM SCT045=

USA.gov is the U.S. government's official web portal to all federal, state and local government web resources and services.